<?xml version="1.0" encoding="UTF-8" standalone="no" ?>
<gpx xmlns="http://www.topografix.com/GPX/1/1" xmlns:xsi="http://www.w3.org/2001/XMLSchema-instance" xsi:schemaLocation="http://www.topografix.com/GPX/1/1 http://www.topografix.com/GPX/1/1/gpx.xsd" version="1.1" creator="VisuGPX - https://www.visugpx.com">
  <metadata>
    <name>Course à pied le midi</name>
  </metadata>
  <trk>
    <name><![CDATA[Course à pied le midi_1]]></name>
    <trkseg>
      <trkpt lat="48.71139" lon="7.16309">
        <ele>317.2</ele>
        <time>2023-11-28T10:47:10Z</time>
      </trkpt>
      <trkpt lat="48.71144" lon="7.16292">
        <ele>317.5</ele>
        <time>2023-11-28T10:47:14Z</time>
      </trkpt>
      <trkpt lat="48.7114" lon="7.16285">
        <ele>317.6</ele>
        <time>2023-11-28T10:47:18Z</time>
      </trkpt>
      <trkpt lat="48.71124" lon="7.1627">
        <ele>317.8</ele>
        <time>2023-11-28T10:47:27Z</time>
      </trkpt>
      <trkpt lat="48.71109" lon="7.16252">
        <ele>318</ele>
        <time>2023-11-28T10:47:36Z</time>
      </trkpt>
      <trkpt lat="48.71094" lon="7.16233">
        <ele>318.1</ele>
        <time>2023-11-28T10:47:46Z</time>
      </trkpt>
      <trkpt lat="48.7108" lon="7.16216">
        <ele>318.3</ele>
        <time>2023-11-28T10:47:55Z</time>
      </trkpt>
      <trkpt lat="48.71063" lon="7.16202">
        <ele>318.5</ele>
        <time>2023-11-28T10:48:04Z</time>
      </trkpt>
      <trkpt lat="48.71044" lon="7.16194">
        <ele>318.6</ele>
        <time>2023-11-28T10:48:13Z</time>
      </trkpt>
      <trkpt lat="48.71027" lon="7.16189">
        <ele>318.7</ele>
        <time>2023-11-28T10:48:21Z</time>
      </trkpt>
      <trkpt lat="48.71008" lon="7.16183">
        <ele>318.9</ele>
        <time>2023-11-28T10:48:29Z</time>
      </trkpt>
      <trkpt lat="48.7099" lon="7.16177">
        <ele>319.2</ele>
        <time>2023-11-28T10:48:37Z</time>
      </trkpt>
      <trkpt lat="48.7097" lon="7.16173">
        <ele>319.8</ele>
        <time>2023-11-28T10:48:46Z</time>
      </trkpt>
      <trkpt lat="48.70951" lon="7.1617">
        <ele>320.4</ele>
        <time>2023-11-28T10:48:54Z</time>
      </trkpt>
      <trkpt lat="48.70933" lon="7.16165">
        <ele>321.1</ele>
        <time>2023-11-28T10:49:03Z</time>
      </trkpt>
      <trkpt lat="48.70914" lon="7.1616">
        <ele>321.8</ele>
        <time>2023-11-28T10:49:12Z</time>
      </trkpt>
      <trkpt lat="48.70895" lon="7.16155">
        <ele>322.5</ele>
        <time>2023-11-28T10:49:21Z</time>
      </trkpt>
      <trkpt lat="48.70877" lon="7.16149">
        <ele>323.2</ele>
        <time>2023-11-28T10:49:30Z</time>
      </trkpt>
      <trkpt lat="48.70858" lon="7.16144">
        <ele>323.8</ele>
        <time>2023-11-28T10:49:38Z</time>
      </trkpt>
      <trkpt lat="48.70839" lon="7.1614">
        <ele>324.6</ele>
        <time>2023-11-28T10:49:47Z</time>
      </trkpt>
      <trkpt lat="48.70829" lon="7.16139">
        <ele>325.1</ele>
        <time>2023-11-28T10:49:52Z</time>
      </trkpt>
      <trkpt lat="48.70816" lon="7.16161">
        <ele>327.7</ele>
        <time>2023-11-28T10:50:02Z</time>
      </trkpt>
      <trkpt lat="48.70804" lon="7.16182">
        <ele>329.1</ele>
        <time>2023-11-28T10:50:12Z</time>
      </trkpt>
      <trkpt lat="48.70793" lon="7.16203">
        <ele>330.5</ele>
        <time>2023-11-28T10:50:22Z</time>
      </trkpt>
      <trkpt lat="48.7078" lon="7.16224">
        <ele>332.1</ele>
        <time>2023-11-28T10:50:34Z</time>
      </trkpt>
      <trkpt lat="48.70766" lon="7.16244">
        <ele>333.8</ele>
        <time>2023-11-28T10:50:46Z</time>
      </trkpt>
      <trkpt lat="48.70754" lon="7.16266">
        <ele>335.6</ele>
        <time>2023-11-28T10:50:57Z</time>
      </trkpt>
      <trkpt lat="48.70743" lon="7.16289">
        <ele>337.3</ele>
        <time>2023-11-28T10:51:08Z</time>
      </trkpt>
      <trkpt lat="48.70729" lon="7.16309">
        <ele>338.9</ele>
        <time>2023-11-28T10:51:19Z</time>
      </trkpt>
      <trkpt lat="48.70717" lon="7.16331">
        <ele>340.4</ele>
        <time>2023-11-28T10:51:29Z</time>
      </trkpt>
      <trkpt lat="48.70704" lon="7.16352">
        <ele>341.9</ele>
        <time>2023-11-28T10:51:39Z</time>
      </trkpt>
      <trkpt lat="48.70692" lon="7.16373">
        <ele>343.4</ele>
        <time>2023-11-28T10:51:49Z</time>
      </trkpt>
      <trkpt lat="48.70681" lon="7.16395">
        <ele>344.9</ele>
        <time>2023-11-28T10:51:59Z</time>
      </trkpt>
      <trkpt lat="48.70668" lon="7.16417">
        <ele>346.6</ele>
        <time>2023-11-28T10:52:10Z</time>
      </trkpt>
      <trkpt lat="48.70656" lon="7.16441">
        <ele>347.6</ele>
        <time>2023-11-28T10:52:20Z</time>
      </trkpt>
      <trkpt lat="48.70644" lon="7.16464">
        <ele>348.4</ele>
        <time>2023-11-28T10:52:28Z</time>
      </trkpt>
      <trkpt lat="48.70631" lon="7.16488">
        <ele>349.5</ele>
        <time>2023-11-28T10:52:38Z</time>
      </trkpt>
      <trkpt lat="48.70618" lon="7.16509">
        <ele>350.6</ele>
        <time>2023-11-28T10:52:47Z</time>
      </trkpt>
      <trkpt lat="48.70607" lon="7.1653">
        <ele>351.6</ele>
        <time>2023-11-28T10:52:56Z</time>
      </trkpt>
      <trkpt lat="48.70596" lon="7.16551">
        <ele>352.5</ele>
        <time>2023-11-28T10:53:04Z</time>
      </trkpt>
      <trkpt lat="48.70583" lon="7.16572">
        <ele>353.3</ele>
        <time>2023-11-28T10:53:13Z</time>
      </trkpt>
      <trkpt lat="48.70569" lon="7.16592">
        <ele>354.2</ele>
        <time>2023-11-28T10:53:22Z</time>
      </trkpt>
      <trkpt lat="48.70557" lon="7.16613">
        <ele>355.1</ele>
        <time>2023-11-28T10:53:30Z</time>
      </trkpt>
      <trkpt lat="48.70544" lon="7.16633">
        <ele>355.8</ele>
        <time>2023-11-28T10:53:39Z</time>
      </trkpt>
      <trkpt lat="48.7053" lon="7.16655">
        <ele>356.5</ele>
        <time>2023-11-28T10:53:48Z</time>
      </trkpt>
      <trkpt lat="48.70517" lon="7.16678">
        <ele>356.7</ele>
        <time>2023-11-28T10:53:59Z</time>
      </trkpt>
      <trkpt lat="48.70506" lon="7.16702">
        <ele>356.4</ele>
        <time>2023-11-28T10:54:07Z</time>
      </trkpt>
      <trkpt lat="48.70494" lon="7.16722">
        <ele>355.9</ele>
        <time>2023-11-28T10:54:15Z</time>
      </trkpt>
      <trkpt lat="48.70483" lon="7.16745">
        <ele>355.2</ele>
        <time>2023-11-28T10:54:22Z</time>
      </trkpt>
      <trkpt lat="48.7047" lon="7.16767">
        <ele>354.4</ele>
        <time>2023-11-28T10:54:30Z</time>
      </trkpt>
      <trkpt lat="48.70455" lon="7.16788">
        <ele>353.7</ele>
        <time>2023-11-28T10:54:38Z</time>
      </trkpt>
      <trkpt lat="48.7044" lon="7.16808">
        <ele>353.4</ele>
        <time>2023-11-28T10:54:46Z</time>
      </trkpt>
      <trkpt lat="48.70427" lon="7.16829">
        <ele>353.4</ele>
        <time>2023-11-28T10:54:53Z</time>
      </trkpt>
      <trkpt lat="48.70412" lon="7.16848">
        <ele>353.6</ele>
        <time>2023-11-28T10:55:02Z</time>
      </trkpt>
      <trkpt lat="48.70398" lon="7.16865">
        <ele>353.8</ele>
        <time>2023-11-28T10:55:10Z</time>
      </trkpt>
      <trkpt lat="48.70382" lon="7.16881">
        <ele>354.3</ele>
        <time>2023-11-28T10:55:18Z</time>
      </trkpt>
      <trkpt lat="48.70363" lon="7.16888">
        <ele>355</ele>
        <time>2023-11-28T10:55:28Z</time>
      </trkpt>
      <trkpt lat="48.70345" lon="7.16895">
        <ele>356.2</ele>
        <time>2023-11-28T10:55:38Z</time>
      </trkpt>
      <trkpt lat="48.70327" lon="7.16907">
        <ele>357.7</ele>
        <time>2023-11-28T10:55:48Z</time>
      </trkpt>
      <trkpt lat="48.70309" lon="7.16919">
        <ele>359.4</ele>
        <time>2023-11-28T10:55:58Z</time>
      </trkpt>
      <trkpt lat="48.70291" lon="7.16929">
        <ele>360.9</ele>
        <time>2023-11-28T10:56:10Z</time>
      </trkpt>
      <trkpt lat="48.70275" lon="7.16943">
        <ele>362.2</ele>
        <time>2023-11-28T10:56:19Z</time>
      </trkpt>
      <trkpt lat="48.70258" lon="7.16957">
        <ele>363.5</ele>
        <time>2023-11-28T10:56:28Z</time>
      </trkpt>
      <trkpt lat="48.70242" lon="7.1697">
        <ele>364.5</ele>
        <time>2023-11-28T10:56:36Z</time>
      </trkpt>
      <trkpt lat="48.70225" lon="7.16982">
        <ele>365.4</ele>
        <time>2023-11-28T10:56:45Z</time>
      </trkpt>
      <trkpt lat="48.70207" lon="7.16996">
        <ele>366.4</ele>
        <time>2023-11-28T10:56:55Z</time>
      </trkpt>
      <trkpt lat="48.7019" lon="7.17007">
        <ele>367.7</ele>
        <time>2023-11-28T10:57:05Z</time>
      </trkpt>
      <trkpt lat="48.70172" lon="7.1702">
        <ele>369.1</ele>
        <time>2023-11-28T10:57:15Z</time>
      </trkpt>
      <trkpt lat="48.70156" lon="7.17035">
        <ele>370.5</ele>
        <time>2023-11-28T10:57:24Z</time>
      </trkpt>
      <trkpt lat="48.70141" lon="7.17052">
        <ele>372.2</ele>
        <time>2023-11-28T10:57:32Z</time>
      </trkpt>
      <trkpt lat="48.70128" lon="7.17073">
        <ele>373.4</ele>
        <time>2023-11-28T10:57:41Z</time>
      </trkpt>
      <trkpt lat="48.70118" lon="7.17097">
        <ele>374.8</ele>
        <time>2023-11-28T10:57:53Z</time>
      </trkpt>
      <trkpt lat="48.70102" lon="7.1711">
        <ele>376.2</ele>
        <time>2023-11-28T10:58:04Z</time>
      </trkpt>
      <trkpt lat="48.70085" lon="7.17124">
        <ele>377.7</ele>
        <time>2023-11-28T10:58:15Z</time>
      </trkpt>
      <trkpt lat="48.7007" lon="7.17139">
        <ele>379.3</ele>
        <time>2023-11-28T10:58:25Z</time>
      </trkpt>
      <trkpt lat="48.70053" lon="7.17153">
        <ele>381</ele>
        <time>2023-11-28T10:58:36Z</time>
      </trkpt>
      <trkpt lat="48.70037" lon="7.17168">
        <ele>382.7</ele>
        <time>2023-11-28T10:58:46Z</time>
      </trkpt>
      <trkpt lat="48.70021" lon="7.17184">
        <ele>384.4</ele>
        <time>2023-11-28T10:58:56Z</time>
      </trkpt>
      <trkpt lat="48.70006" lon="7.17201">
        <ele>386</ele>
        <time>2023-11-28T10:59:07Z</time>
      </trkpt>
      <trkpt lat="48.69992" lon="7.17221">
        <ele>387.6</ele>
        <time>2023-11-28T10:59:17Z</time>
      </trkpt>
      <trkpt lat="48.69977" lon="7.17238">
        <ele>389.1</ele>
        <time>2023-11-28T10:59:28Z</time>
      </trkpt>
      <trkpt lat="48.69963" lon="7.17259">
        <ele>390.5</ele>
        <time>2023-11-28T10:59:37Z</time>
      </trkpt>
      <trkpt lat="48.6995" lon="7.1728">
        <ele>391.6</ele>
        <time>2023-11-28T10:59:46Z</time>
      </trkpt>
      <trkpt lat="48.69936" lon="7.17301">
        <ele>392.6</ele>
        <time>2023-11-28T10:59:55Z</time>
      </trkpt>
      <trkpt lat="48.69921" lon="7.17318">
        <ele>393.5</ele>
        <time>2023-11-28T11:00:04Z</time>
      </trkpt>
      <trkpt lat="48.69907" lon="7.17337">
        <ele>394.5</ele>
        <time>2023-11-28T11:00:14Z</time>
      </trkpt>
      <trkpt lat="48.69894" lon="7.17359">
        <ele>395.7</ele>
        <time>2023-11-28T11:00:23Z</time>
      </trkpt>
      <trkpt lat="48.6988" lon="7.17381">
        <ele>397</ele>
        <time>2023-11-28T11:00:33Z</time>
      </trkpt>
      <trkpt lat="48.69867" lon="7.17399">
        <ele>398</ele>
        <time>2023-11-28T11:00:43Z</time>
      </trkpt>
      <trkpt lat="48.69861" lon="7.17426">
        <ele>398.9</ele>
        <time>2023-11-28T11:00:57Z</time>
      </trkpt>
      <trkpt lat="48.69845" lon="7.1744">
        <ele>399.6</ele>
        <time>2023-11-28T11:01:07Z</time>
      </trkpt>
      <trkpt lat="48.69833" lon="7.17416">
        <ele>399.6</ele>
        <time>2023-11-28T11:01:15Z</time>
      </trkpt>
      <trkpt lat="48.69823" lon="7.1739">
        <ele>399.2</ele>
        <time>2023-11-28T11:01:23Z</time>
      </trkpt>
      <trkpt lat="48.69813" lon="7.17367">
        <ele>398.9</ele>
        <time>2023-11-28T11:01:33Z</time>
      </trkpt>
      <trkpt lat="48.69799" lon="7.17352">
        <ele>398.8</ele>
        <time>2023-11-28T11:01:43Z</time>
      </trkpt>
      <trkpt lat="48.69782" lon="7.17361">
        <ele>398.8</ele>
        <time>2023-11-28T11:01:51Z</time>
      </trkpt>
      <trkpt lat="48.69765" lon="7.17376">
        <ele>398.9</ele>
        <time>2023-11-28T11:02:00Z</time>
      </trkpt>
      <trkpt lat="48.69749" lon="7.17392">
        <ele>399</ele>
        <time>2023-11-28T11:02:08Z</time>
      </trkpt>
      <trkpt lat="48.69732" lon="7.17403">
        <ele>399</ele>
        <time>2023-11-28T11:02:16Z</time>
      </trkpt>
      <trkpt lat="48.69716" lon="7.17417">
        <ele>399.2</ele>
        <time>2023-11-28T11:02:24Z</time>
      </trkpt>
      <trkpt lat="48.69699" lon="7.1743">
        <ele>399.3</ele>
        <time>2023-11-28T11:02:32Z</time>
      </trkpt>
      <trkpt lat="48.69685" lon="7.17447">
        <ele>399.5</ele>
        <time>2023-11-28T11:02:39Z</time>
      </trkpt>
      <trkpt lat="48.69668" lon="7.17464">
        <ele>399.9</ele>
        <time>2023-11-28T11:02:48Z</time>
      </trkpt>
      <trkpt lat="48.6965" lon="7.17473">
        <ele>400.4</ele>
        <time>2023-11-28T11:02:59Z</time>
      </trkpt>
      <trkpt lat="48.69631" lon="7.17488">
        <ele>401</ele>
        <time>2023-11-28T11:03:07Z</time>
      </trkpt>
      <trkpt lat="48.69614" lon="7.17501">
        <ele>401.9</ele>
        <time>2023-11-28T11:03:15Z</time>
      </trkpt>
      <trkpt lat="48.69599" lon="7.17521">
        <ele>402.7</ele>
        <time>2023-11-28T11:03:26Z</time>
      </trkpt>
      <trkpt lat="48.69583" lon="7.17534">
        <ele>403.3</ele>
        <time>2023-11-28T11:03:36Z</time>
      </trkpt>
      <trkpt lat="48.69566" lon="7.17551">
        <ele>403.6</ele>
        <time>2023-11-28T11:03:45Z</time>
      </trkpt>
      <trkpt lat="48.69551" lon="7.17564">
        <ele>403.8</ele>
        <time>2023-11-28T11:03:54Z</time>
      </trkpt>
      <trkpt lat="48.69557" lon="7.17583">
        <ele>404.3</ele>
        <time>2023-11-28T11:04:05Z</time>
      </trkpt>
      <trkpt lat="48.69564" lon="7.17609">
        <ele>404.5</ele>
        <time>2023-11-28T11:04:18Z</time>
      </trkpt>
      <trkpt lat="48.69568" lon="7.17639">
        <ele>404.3</ele>
        <time>2023-11-28T11:04:30Z</time>
      </trkpt>
      <trkpt lat="48.6957" lon="7.17658">
        <ele>404</ele>
        <time>2023-11-28T11:04:38Z</time>
      </trkpt>
      <trkpt lat="48.69569" lon="7.17686">
        <ele>403.4</ele>
        <time>2023-11-28T11:04:50Z</time>
      </trkpt>
      <trkpt lat="48.69566" lon="7.17689">
        <ele>403.3</ele>
        <time>2023-11-28T11:04:53Z</time>
      </trkpt>
      <trkpt lat="48.69557" lon="7.17715">
        <ele>402.6</ele>
        <time>2023-11-28T11:05:04Z</time>
      </trkpt>
      <trkpt lat="48.69557" lon="7.1772">
        <ele>402.4</ele>
        <time>2023-11-28T11:05:07Z</time>
      </trkpt>
      <trkpt lat="48.69555" lon="7.1775">
        <ele>401.1</ele>
        <time>2023-11-28T11:05:16Z</time>
      </trkpt>
      <trkpt lat="48.6955" lon="7.17777">
        <ele>400</ele>
        <time>2023-11-28T11:05:23Z</time>
      </trkpt>
      <trkpt lat="48.69548" lon="7.17805">
        <ele>398.9</ele>
        <time>2023-11-28T11:05:31Z</time>
      </trkpt>
      <trkpt lat="48.69545" lon="7.17832">
        <ele>397.9</ele>
        <time>2023-11-28T11:05:38Z</time>
      </trkpt>
      <trkpt lat="48.69545" lon="7.17863">
        <ele>397.2</ele>
        <time>2023-11-28T11:05:47Z</time>
      </trkpt>
      <trkpt lat="48.69542" lon="7.17884">
        <ele>396.7</ele>
        <time>2023-11-28T11:05:57Z</time>
      </trkpt>
      <trkpt lat="48.69543" lon="7.1789">
        <ele>396.5</ele>
        <time>2023-11-28T11:06:01Z</time>
      </trkpt>
      <trkpt lat="48.69555" lon="7.17913">
        <ele>394.2</ele>
        <time>2023-11-28T11:06:14Z</time>
      </trkpt>
      <trkpt lat="48.69567" lon="7.17912">
        <ele>393</ele>
        <time>2023-11-28T11:06:22Z</time>
      </trkpt>
      <trkpt lat="48.69573" lon="7.17909">
        <ele>392.8</ele>
        <time>2023-11-28T11:06:25Z</time>
      </trkpt>
      <trkpt lat="48.6959" lon="7.179">
        <ele>391.9</ele>
        <time>2023-11-28T11:06:33Z</time>
      </trkpt>
      <trkpt lat="48.69598" lon="7.17904">
        <ele>390.9</ele>
        <time>2023-11-28T11:06:38Z</time>
      </trkpt>
      <trkpt lat="48.69615" lon="7.17913">
        <ele>388.6</ele>
        <time>2023-11-28T11:06:49Z</time>
      </trkpt>
      <trkpt lat="48.69629" lon="7.17932">
        <ele>383.8</ele>
        <time>2023-11-28T11:07:02Z</time>
      </trkpt>
      <trkpt lat="48.69651" lon="7.17945">
        <ele>378.2</ele>
        <time>2023-11-28T11:07:15Z</time>
      </trkpt>
      <trkpt lat="48.6966" lon="7.1794">
        <ele>377.7</ele>
        <time>2023-11-28T11:07:19Z</time>
      </trkpt>
      <trkpt lat="48.69677" lon="7.17921">
        <ele>379.6</ele>
        <time>2023-11-28T11:07:26Z</time>
      </trkpt>
      <trkpt lat="48.69687" lon="7.17916">
        <ele>379.4</ele>
        <time>2023-11-28T11:07:32Z</time>
      </trkpt>
      <trkpt lat="48.69671" lon="7.17912">
        <ele>381.7</ele>
        <time>2023-11-28T11:07:48Z</time>
      </trkpt>
      <trkpt lat="48.69665" lon="7.17905">
        <ele>383.7</ele>
        <time>2023-11-28T11:07:54Z</time>
      </trkpt>
      <trkpt lat="48.69664" lon="7.17902">
        <ele>383.7</ele>
        <time>2023-11-28T11:07:57Z</time>
      </trkpt>
      <trkpt lat="48.69673" lon="7.17904">
        <ele>382.5</ele>
        <time>2023-11-28T11:08:06Z</time>
      </trkpt>
      <trkpt lat="48.69687" lon="7.17909">
        <ele>380.5</ele>
        <time>2023-11-28T11:08:19Z</time>
      </trkpt>
      <trkpt lat="48.6969" lon="7.17911">
        <ele>379.7</ele>
        <time>2023-11-28T11:08:23Z</time>
      </trkpt>
      <trkpt lat="48.69691" lon="7.17912">
        <ele>379.4</ele>
        <time>2023-11-28T11:08:26Z</time>
      </trkpt>
      <trkpt lat="48.69695" lon="7.17909">
        <ele>379.6</ele>
        <time>2023-11-28T11:08:29Z</time>
      </trkpt>
      <trkpt lat="48.69701" lon="7.17905">
        <ele>379.6</ele>
        <time>2023-11-28T11:08:35Z</time>
      </trkpt>
      <trkpt lat="48.69703" lon="7.17903">
        <ele>379.3</ele>
        <time>2023-11-28T11:08:38Z</time>
      </trkpt>
      <trkpt lat="48.69705" lon="7.17902">
        <ele>379</ele>
        <time>2023-11-28T11:08:40Z</time>
      </trkpt>
      <trkpt lat="48.69708" lon="7.17901">
        <ele>379.3</ele>
        <time>2023-11-28T11:08:43Z</time>
      </trkpt>
      <trkpt lat="48.6971" lon="7.17904">
        <ele>378.8</ele>
        <time>2023-11-28T11:08:45Z</time>
      </trkpt>
      <trkpt lat="48.69726" lon="7.17879">
        <ele>379.4</ele>
        <time>2023-11-28T11:08:56Z</time>
      </trkpt>
      <trkpt lat="48.69742" lon="7.17865">
        <ele>379.5</ele>
        <time>2023-11-28T11:09:05Z</time>
      </trkpt>
      <trkpt lat="48.6976" lon="7.17856">
        <ele>379.2</ele>
        <time>2023-11-28T11:09:15Z</time>
      </trkpt>
      <trkpt lat="48.69774" lon="7.17859">
        <ele>378.5</ele>
        <time>2023-11-28T11:09:23Z</time>
      </trkpt>
      <trkpt lat="48.69791" lon="7.17846">
        <ele>378.6</ele>
        <time>2023-11-28T11:09:29Z</time>
      </trkpt>
      <trkpt lat="48.6981" lon="7.17839">
        <ele>378.5</ele>
        <time>2023-11-28T11:09:36Z</time>
      </trkpt>
      <trkpt lat="48.69824" lon="7.17817">
        <ele>378.7</ele>
        <time>2023-11-28T11:09:46Z</time>
      </trkpt>
      <trkpt lat="48.69836" lon="7.17794">
        <ele>379.9</ele>
        <time>2023-11-28T11:09:53Z</time>
      </trkpt>
      <trkpt lat="48.69846" lon="7.17768">
        <ele>381.9</ele>
        <time>2023-11-28T11:10:00Z</time>
      </trkpt>
      <trkpt lat="48.69859" lon="7.17746">
        <ele>384.4</ele>
        <time>2023-11-28T11:10:08Z</time>
      </trkpt>
      <trkpt lat="48.6987" lon="7.17737">
        <ele>386.1</ele>
        <time>2023-11-28T11:10:17Z</time>
      </trkpt>
      <trkpt lat="48.69874" lon="7.17737">
        <ele>386.4</ele>
        <time>2023-11-28T11:10:22Z</time>
      </trkpt>
      <trkpt lat="48.6987" lon="7.1777">
        <ele>383.3</ele>
        <time>2023-11-28T11:11:10Z</time>
      </trkpt>
      <trkpt lat="48.69868" lon="7.17772">
        <ele>383</ele>
        <time>2023-11-28T11:11:11Z</time>
      </trkpt>
      <trkpt lat="48.69854" lon="7.17786">
        <ele>380.9</ele>
        <time>2023-11-28T11:11:16Z</time>
      </trkpt>
      <trkpt lat="48.69837" lon="7.17801">
        <ele>379.6</ele>
        <time>2023-11-28T11:11:26Z</time>
      </trkpt>
      <trkpt lat="48.6984" lon="7.17787">
        <ele>380.5</ele>
        <time>2023-11-28T11:11:32Z</time>
      </trkpt>
      <trkpt lat="48.69851" lon="7.17763">
        <ele>382.6</ele>
        <time>2023-11-28T11:11:40Z</time>
      </trkpt>
      <trkpt lat="48.69859" lon="7.17751">
        <ele>383.7</ele>
        <time>2023-11-28T11:11:50Z</time>
      </trkpt>
      <trkpt lat="48.69862" lon="7.17749">
        <ele>384.2</ele>
        <time>2023-11-28T11:11:55Z</time>
      </trkpt>
      <trkpt lat="48.69865" lon="7.17753">
        <ele>384.1</ele>
        <time>2023-11-28T11:11:59Z</time>
      </trkpt>
      <trkpt lat="48.6988" lon="7.17769">
        <ele>384.1</ele>
        <time>2023-11-28T11:12:13Z</time>
      </trkpt>
      <trkpt lat="48.69894" lon="7.17784">
        <ele>385.4</ele>
        <time>2023-11-28T11:12:27Z</time>
      </trkpt>
      <trkpt lat="48.69898" lon="7.17785">
        <ele>385.6</ele>
        <time>2023-11-28T11:12:31Z</time>
      </trkpt>
      <trkpt lat="48.69902" lon="7.17787">
        <ele>386.6</ele>
        <time>2023-11-28T11:12:35Z</time>
      </trkpt>
      <trkpt lat="48.69908" lon="7.17788">
        <ele>387.6</ele>
        <time>2023-11-28T11:12:39Z</time>
      </trkpt>
      <trkpt lat="48.69907" lon="7.17788">
        <ele>387.6</ele>
        <time>2023-11-28T11:12:42Z</time>
      </trkpt>
      <trkpt lat="48.69891" lon="7.17772">
        <ele>385.7</ele>
        <time>2023-11-28T11:12:51Z</time>
      </trkpt>
      <trkpt lat="48.69874" lon="7.17756">
        <ele>384.5</ele>
        <time>2023-11-28T11:12:57Z</time>
      </trkpt>
      <trkpt lat="48.69865" lon="7.17743">
        <ele>384.8</ele>
        <time>2023-11-28T11:13:03Z</time>
      </trkpt>
      <trkpt lat="48.69881" lon="7.17729">
        <ele>387.6</ele>
        <time>2023-11-28T11:13:13Z</time>
      </trkpt>
      <trkpt lat="48.69888" lon="7.17721">
        <ele>389</ele>
        <time>2023-11-28T11:13:18Z</time>
      </trkpt>
      <trkpt lat="48.69896" lon="7.17718">
        <ele>390.3</ele>
        <time>2023-11-28T11:13:26Z</time>
      </trkpt>
      <trkpt lat="48.69902" lon="7.17719">
        <ele>390.7</ele>
        <time>2023-11-28T11:13:35Z</time>
      </trkpt>
      <trkpt lat="48.69918" lon="7.17705">
        <ele>391.7</ele>
        <time>2023-11-28T11:13:50Z</time>
      </trkpt>
      <trkpt lat="48.69926" lon="7.177">
        <ele>391.9</ele>
        <time>2023-11-28T11:13:53Z</time>
      </trkpt>
      <trkpt lat="48.6993" lon="7.17696">
        <ele>392</ele>
        <time>2023-11-28T11:13:57Z</time>
      </trkpt>
      <trkpt lat="48.69913" lon="7.1771">
        <ele>391.5</ele>
        <time>2023-11-28T11:14:08Z</time>
      </trkpt>
      <trkpt lat="48.69895" lon="7.1772">
        <ele>390.2</ele>
        <time>2023-11-28T11:14:17Z</time>
      </trkpt>
      <trkpt lat="48.69891" lon="7.17724">
        <ele>389.3</ele>
        <time>2023-11-28T11:14:23Z</time>
      </trkpt>
      <trkpt lat="48.69895" lon="7.17721">
        <ele>389.9</ele>
        <time>2023-11-28T11:14:29Z</time>
      </trkpt>
      <trkpt lat="48.69898" lon="7.1772">
        <ele>390.4</ele>
        <time>2023-11-28T11:14:33Z</time>
      </trkpt>
      <trkpt lat="48.699" lon="7.17716">
        <ele>390.4</ele>
        <time>2023-11-28T11:14:36Z</time>
      </trkpt>
      <trkpt lat="48.69903" lon="7.17713">
        <ele>390.8</ele>
        <time>2023-11-28T11:14:40Z</time>
      </trkpt>
      <trkpt lat="48.6992" lon="7.17704">
        <ele>391.6</ele>
        <time>2023-11-28T11:14:48Z</time>
      </trkpt>
      <trkpt lat="48.69938" lon="7.17697">
        <ele>391.9</ele>
        <time>2023-11-28T11:14:54Z</time>
      </trkpt>
      <trkpt lat="48.69937" lon="7.17696">
        <ele>391.9</ele>
        <time>2023-11-28T11:14:57Z</time>
      </trkpt>
      <trkpt lat="48.69921" lon="7.17708">
        <ele>391.4</ele>
        <time>2023-11-28T11:15:07Z</time>
      </trkpt>
      <trkpt lat="48.69904" lon="7.17717">
        <ele>390.7</ele>
        <time>2023-11-28T11:15:16Z</time>
      </trkpt>
      <trkpt lat="48.69894" lon="7.17723">
        <ele>389.6</ele>
        <time>2023-11-28T11:15:25Z</time>
      </trkpt>
      <trkpt lat="48.69897" lon="7.17724">
        <ele>389.9</ele>
        <time>2023-11-28T11:15:29Z</time>
      </trkpt>
      <trkpt lat="48.699" lon="7.17722">
        <ele>390.1</ele>
        <time>2023-11-28T11:15:34Z</time>
      </trkpt>
      <trkpt lat="48.69902" lon="7.17719">
        <ele>390.5</ele>
        <time>2023-11-28T11:15:36Z</time>
      </trkpt>
      <trkpt lat="48.69908" lon="7.17712">
        <ele>391</ele>
        <time>2023-11-28T11:15:45Z</time>
      </trkpt>
      <trkpt lat="48.69909" lon="7.1771">
        <ele>391.2</ele>
        <time>2023-11-28T11:15:47Z</time>
      </trkpt>
      <trkpt lat="48.69929" lon="7.17702">
        <ele>391.7</ele>
        <time>2023-11-28T11:15:56Z</time>
      </trkpt>
      <trkpt lat="48.69935" lon="7.17701">
        <ele>391.6</ele>
        <time>2023-11-28T11:16:02Z</time>
      </trkpt>
      <trkpt lat="48.6992" lon="7.17715">
        <ele>391.2</ele>
        <time>2023-11-28T11:16:13Z</time>
      </trkpt>
      <trkpt lat="48.69903" lon="7.17726">
        <ele>390</ele>
        <time>2023-11-28T11:16:22Z</time>
      </trkpt>
      <trkpt lat="48.69892" lon="7.17732">
        <ele>388.9</ele>
        <time>2023-11-28T11:16:31Z</time>
      </trkpt>
      <trkpt lat="48.69895" lon="7.17729">
        <ele>389.3</ele>
        <time>2023-11-28T11:16:36Z</time>
      </trkpt>
      <trkpt lat="48.69898" lon="7.17726">
        <ele>389.5</ele>
        <time>2023-11-28T11:16:41Z</time>
      </trkpt>
      <trkpt lat="48.699" lon="7.17722">
        <ele>390</ele>
        <time>2023-11-28T11:16:47Z</time>
      </trkpt>
      <trkpt lat="48.69901" lon="7.17723">
        <ele>390.2</ele>
        <time>2023-11-28T11:16:49Z</time>
      </trkpt>
      <trkpt lat="48.69903" lon="7.17719">
        <ele>390.5</ele>
        <time>2023-11-28T11:16:52Z</time>
      </trkpt>
      <trkpt lat="48.6992" lon="7.17706">
        <ele>391.5</ele>
        <time>2023-11-28T11:17:02Z</time>
      </trkpt>
      <trkpt lat="48.69935" lon="7.17698">
        <ele>391.8</ele>
        <time>2023-11-28T11:17:10Z</time>
      </trkpt>
      <trkpt lat="48.69932" lon="7.177">
        <ele>391.6</ele>
        <time>2023-11-28T11:17:12Z</time>
      </trkpt>
      <trkpt lat="48.69917" lon="7.17714">
        <ele>391.1</ele>
        <time>2023-11-28T11:17:23Z</time>
      </trkpt>
      <trkpt lat="48.69899" lon="7.17719">
        <ele>390.2</ele>
        <time>2023-11-28T11:17:34Z</time>
      </trkpt>
      <trkpt lat="48.6989" lon="7.17728">
        <ele>388.8</ele>
        <time>2023-11-28T11:17:42Z</time>
      </trkpt>
      <trkpt lat="48.69892" lon="7.17729">
        <ele>389.2</ele>
        <time>2023-11-28T11:17:47Z</time>
      </trkpt>
      <trkpt lat="48.69894" lon="7.17729">
        <ele>389.1</ele>
        <time>2023-11-28T11:17:49Z</time>
      </trkpt>
      <trkpt lat="48.69895" lon="7.17727">
        <ele>389.4</ele>
        <time>2023-11-28T11:17:51Z</time>
      </trkpt>
      <trkpt lat="48.69899" lon="7.17723">
        <ele>389.9</ele>
        <time>2023-11-28T11:17:56Z</time>
      </trkpt>
      <trkpt lat="48.69901" lon="7.17721">
        <ele>390.1</ele>
        <time>2023-11-28T11:17:59Z</time>
      </trkpt>
      <trkpt lat="48.69904" lon="7.17717">
        <ele>390.5</ele>
        <time>2023-11-28T11:18:04Z</time>
      </trkpt>
      <trkpt lat="48.6991" lon="7.17712">
        <ele>390.9</ele>
        <time>2023-11-28T11:18:09Z</time>
      </trkpt>
      <trkpt lat="48.6993" lon="7.17705">
        <ele>391.3</ele>
        <time>2023-11-28T11:18:15Z</time>
      </trkpt>
      <trkpt lat="48.69938" lon="7.177">
        <ele>391.5</ele>
        <time>2023-11-28T11:18:21Z</time>
      </trkpt>
      <trkpt lat="48.69922" lon="7.17716">
        <ele>391</ele>
        <time>2023-11-28T11:18:32Z</time>
      </trkpt>
      <trkpt lat="48.69904" lon="7.17722">
        <ele>390.3</ele>
        <time>2023-11-28T11:18:44Z</time>
      </trkpt>
      <trkpt lat="48.69896" lon="7.17723">
        <ele>389.6</ele>
        <time>2023-11-28T11:18:52Z</time>
      </trkpt>
      <trkpt lat="48.69897" lon="7.17724">
        <ele>389.6</ele>
        <time>2023-11-28T11:18:55Z</time>
      </trkpt>
      <trkpt lat="48.69897" lon="7.17723">
        <ele>389.6</ele>
        <time>2023-11-28T11:18:57Z</time>
      </trkpt>
      <trkpt lat="48.69899" lon="7.17721">
        <ele>389.9</ele>
        <time>2023-11-28T11:19:01Z</time>
      </trkpt>
      <trkpt lat="48.69901" lon="7.17722">
        <ele>390.1</ele>
        <time>2023-11-28T11:19:03Z</time>
      </trkpt>
      <trkpt lat="48.69903" lon="7.1772">
        <ele>390.3</ele>
        <time>2023-11-28T11:19:08Z</time>
      </trkpt>
      <trkpt lat="48.69904" lon="7.17721">
        <ele>390.2</ele>
        <time>2023-11-28T11:19:11Z</time>
      </trkpt>
      <trkpt lat="48.69906" lon="7.17718">
        <ele>390.4</ele>
        <time>2023-11-28T11:19:14Z</time>
      </trkpt>
      <trkpt lat="48.69906" lon="7.17715">
        <ele>390.8</ele>
        <time>2023-11-28T11:19:17Z</time>
      </trkpt>
      <trkpt lat="48.69907" lon="7.17714">
        <ele>390.8</ele>
        <time>2023-11-28T11:19:19Z</time>
      </trkpt>
      <trkpt lat="48.6991" lon="7.17712">
        <ele>390.8</ele>
        <time>2023-11-28T11:19:22Z</time>
      </trkpt>
      <trkpt lat="48.6993" lon="7.17712">
        <ele>391.1</ele>
        <time>2023-11-28T11:19:30Z</time>
      </trkpt>
      <trkpt lat="48.69937" lon="7.17711">
        <ele>391</ele>
        <time>2023-11-28T11:19:33Z</time>
      </trkpt>
      <trkpt lat="48.69919" lon="7.17721">
        <ele>390.7</ele>
        <time>2023-11-28T11:19:45Z</time>
      </trkpt>
      <trkpt lat="48.699" lon="7.17723">
        <ele>389.8</ele>
        <time>2023-11-28T11:19:57Z</time>
      </trkpt>
      <trkpt lat="48.69891" lon="7.17732">
        <ele>388.3</ele>
        <time>2023-11-28T11:20:06Z</time>
      </trkpt>
      <trkpt lat="48.69893" lon="7.17731">
        <ele>388.7</ele>
        <time>2023-11-28T11:20:08Z</time>
      </trkpt>
      <trkpt lat="48.69895" lon="7.17731">
        <ele>389</ele>
        <time>2023-11-28T11:20:11Z</time>
      </trkpt>
      <trkpt lat="48.69897" lon="7.17729">
        <ele>389.3</ele>
        <time>2023-11-28T11:20:14Z</time>
      </trkpt>
      <trkpt lat="48.69899" lon="7.17725">
        <ele>389.5</ele>
        <time>2023-11-28T11:20:17Z</time>
      </trkpt>
      <trkpt lat="48.69901" lon="7.17721">
        <ele>390</ele>
        <time>2023-11-28T11:20:20Z</time>
      </trkpt>
      <trkpt lat="48.6991" lon="7.17711">
        <ele>391</ele>
        <time>2023-11-28T11:20:32Z</time>
      </trkpt>
      <trkpt lat="48.69928" lon="7.17705">
        <ele>391.2</ele>
        <time>2023-11-28T11:20:40Z</time>
      </trkpt>
      <trkpt lat="48.69929" lon="7.17701">
        <ele>391.3</ele>
        <time>2023-11-28T11:20:45Z</time>
      </trkpt>
      <trkpt lat="48.69914" lon="7.17717">
        <ele>390.7</ele>
        <time>2023-11-28T11:20:55Z</time>
      </trkpt>
      <trkpt lat="48.69897" lon="7.17728">
        <ele>389.2</ele>
        <time>2023-11-28T11:21:09Z</time>
      </trkpt>
      <trkpt lat="48.69894" lon="7.17722">
        <ele>389.2</ele>
        <time>2023-11-28T11:21:22Z</time>
      </trkpt>
      <trkpt lat="48.69896" lon="7.17722">
        <ele>389.5</ele>
        <time>2023-11-28T11:21:25Z</time>
      </trkpt>
      <trkpt lat="48.69899" lon="7.17718">
        <ele>390</ele>
        <time>2023-11-28T11:21:29Z</time>
      </trkpt>
      <trkpt lat="48.69901" lon="7.17717">
        <ele>390.1</ele>
        <time>2023-11-28T11:21:32Z</time>
      </trkpt>
      <trkpt lat="48.69903" lon="7.17716">
        <ele>390.4</ele>
        <time>2023-11-28T11:21:34Z</time>
      </trkpt>
      <trkpt lat="48.69922" lon="7.17707">
        <ele>391.2</ele>
        <time>2023-11-28T11:21:45Z</time>
      </trkpt>
      <trkpt lat="48.69936" lon="7.17703">
        <ele>391.2</ele>
        <time>2023-11-28T11:21:51Z</time>
      </trkpt>
      <trkpt lat="48.69932" lon="7.17707">
        <ele>391.1</ele>
        <time>2023-11-28T11:21:55Z</time>
      </trkpt>
      <trkpt lat="48.69914" lon="7.17717">
        <ele>390.6</ele>
        <time>2023-11-28T11:22:07Z</time>
      </trkpt>
      <trkpt lat="48.69897" lon="7.17728">
        <ele>389.1</ele>
        <time>2023-11-28T11:22:17Z</time>
      </trkpt>
      <trkpt lat="48.69892" lon="7.17729">
        <ele>388.5</ele>
        <time>2023-11-28T11:22:24Z</time>
      </trkpt>
      <trkpt lat="48.69893" lon="7.17729">
        <ele>388.5</ele>
        <time>2023-11-28T11:22:28Z</time>
      </trkpt>
      <trkpt lat="48.69895" lon="7.17729">
        <ele>388.5</ele>
        <time>2023-11-28T11:22:29Z</time>
      </trkpt>
      <trkpt lat="48.69896" lon="7.17729">
        <ele>389.1</ele>
        <time>2023-11-28T11:22:33Z</time>
      </trkpt>
      <trkpt lat="48.69901" lon="7.17726">
        <ele>389.6</ele>
        <time>2023-11-28T11:22:38Z</time>
      </trkpt>
      <trkpt lat="48.69903" lon="7.17723">
        <ele>389.8</ele>
        <time>2023-11-28T11:22:41Z</time>
      </trkpt>
      <trkpt lat="48.69904" lon="7.17721">
        <ele>390</ele>
        <time>2023-11-28T11:22:45Z</time>
      </trkpt>
      <trkpt lat="48.69905" lon="7.17719">
        <ele>390.2</ele>
        <time>2023-11-28T11:22:48Z</time>
      </trkpt>
      <trkpt lat="48.69907" lon="7.17719">
        <ele>390.3</ele>
        <time>2023-11-28T11:22:50Z</time>
      </trkpt>
      <trkpt lat="48.69909" lon="7.17716">
        <ele>390.5</ele>
        <time>2023-11-28T11:22:52Z</time>
      </trkpt>
      <trkpt lat="48.69929" lon="7.17704">
        <ele>391</ele>
        <time>2023-11-28T11:23:01Z</time>
      </trkpt>
      <trkpt lat="48.69935" lon="7.17701">
        <ele>391.1</ele>
        <time>2023-11-28T11:23:06Z</time>
      </trkpt>
      <trkpt lat="48.6992" lon="7.17715">
        <ele>390.7</ele>
        <time>2023-11-28T11:23:23Z</time>
      </trkpt>
      <trkpt lat="48.69902" lon="7.17728">
        <ele>389.5</ele>
        <time>2023-11-28T11:23:33Z</time>
      </trkpt>
      <trkpt lat="48.69895" lon="7.17734">
        <ele>388.5</ele>
        <time>2023-11-28T11:23:45Z</time>
      </trkpt>
      <trkpt lat="48.69897" lon="7.17734">
        <ele>388.5</ele>
        <time>2023-11-28T11:23:48Z</time>
      </trkpt>
      <trkpt lat="48.69898" lon="7.17731">
        <ele>389</ele>
        <time>2023-11-28T11:23:51Z</time>
      </trkpt>
      <trkpt lat="48.69901" lon="7.17722">
        <ele>389.7</ele>
        <time>2023-11-28T11:23:58Z</time>
      </trkpt>
      <trkpt lat="48.69902" lon="7.17719">
        <ele>390</ele>
        <time>2023-11-28T11:24:00Z</time>
      </trkpt>
      <trkpt lat="48.69903" lon="7.17716">
        <ele>390.2</ele>
        <time>2023-11-28T11:24:03Z</time>
      </trkpt>
      <trkpt lat="48.69906" lon="7.17712">
        <ele>390.3</ele>
        <time>2023-11-28T11:24:09Z</time>
      </trkpt>
      <trkpt lat="48.69926" lon="7.17701">
        <ele>391.1</ele>
        <time>2023-11-28T11:24:17Z</time>
      </trkpt>
      <trkpt lat="48.69939" lon="7.17689">
        <ele>391.7</ele>
        <time>2023-11-28T11:24:23Z</time>
      </trkpt>
      <trkpt lat="48.69939" lon="7.17685">
        <ele>392</ele>
        <time>2023-11-28T11:24:25Z</time>
      </trkpt>
      <trkpt lat="48.69929" lon="7.17663">
        <ele>393.1</ele>
        <time>2023-11-28T11:24:39Z</time>
      </trkpt>
      <trkpt lat="48.69917" lon="7.17645">
        <ele>393.7</ele>
        <time>2023-11-28T11:24:51Z</time>
      </trkpt>
      <trkpt lat="48.69903" lon="7.17625">
        <ele>394.3</ele>
        <time>2023-11-28T11:25:01Z</time>
      </trkpt>
      <trkpt lat="48.69892" lon="7.17602">
        <ele>394.9</ele>
        <time>2023-11-28T11:25:11Z</time>
      </trkpt>
      <trkpt lat="48.6989" lon="7.17574">
        <ele>395.4</ele>
        <time>2023-11-28T11:25:21Z</time>
      </trkpt>
      <trkpt lat="48.69893" lon="7.17545">
        <ele>395.9</ele>
        <time>2023-11-28T11:25:29Z</time>
      </trkpt>
      <trkpt lat="48.699" lon="7.17517">
        <ele>396.4</ele>
        <time>2023-11-28T11:25:39Z</time>
      </trkpt>
      <trkpt lat="48.699" lon="7.1751">
        <ele>396.5</ele>
        <time>2023-11-28T11:25:41Z</time>
      </trkpt>
      <trkpt lat="48.69892" lon="7.17486">
        <ele>396.8</ele>
        <time>2023-11-28T11:25:47Z</time>
      </trkpt>
      <trkpt lat="48.69882" lon="7.1746">
        <ele>397.3</ele>
        <time>2023-11-28T11:25:54Z</time>
      </trkpt>
      <trkpt lat="48.6987" lon="7.17436">
        <ele>397.7</ele>
        <time>2023-11-28T11:26:01Z</time>
      </trkpt>
      <trkpt lat="48.69858" lon="7.17412">
        <ele>397.9</ele>
        <time>2023-11-28T11:26:08Z</time>
      </trkpt>
      <trkpt lat="48.69848" lon="7.17385">
        <ele>397.8</ele>
        <time>2023-11-28T11:26:15Z</time>
      </trkpt>
      <trkpt lat="48.69837" lon="7.1736">
        <ele>397.7</ele>
        <time>2023-11-28T11:26:21Z</time>
      </trkpt>
      <trkpt lat="48.69825" lon="7.17335">
        <ele>397.5</ele>
        <time>2023-11-28T11:26:28Z</time>
      </trkpt>
      <trkpt lat="48.69815" lon="7.17309">
        <ele>397.4</ele>
        <time>2023-11-28T11:26:35Z</time>
      </trkpt>
      <trkpt lat="48.69812" lon="7.17303">
        <ele>397.4</ele>
        <time>2023-11-28T11:26:37Z</time>
      </trkpt>
      <trkpt lat="48.69804" lon="7.17276">
        <ele>397.1</ele>
        <time>2023-11-28T11:26:44Z</time>
      </trkpt>
      <trkpt lat="48.69794" lon="7.17254">
        <ele>396.5</ele>
        <time>2023-11-28T11:26:50Z</time>
      </trkpt>
      <trkpt lat="48.69787" lon="7.17225">
        <ele>395.7</ele>
        <time>2023-11-28T11:26:57Z</time>
      </trkpt>
      <trkpt lat="48.69781" lon="7.17197">
        <ele>394.8</ele>
        <time>2023-11-28T11:27:04Z</time>
      </trkpt>
      <trkpt lat="48.69783" lon="7.17169">
        <ele>394</ele>
        <time>2023-11-28T11:27:11Z</time>
      </trkpt>
      <trkpt lat="48.6978" lon="7.17141">
        <ele>393.3</ele>
        <time>2023-11-28T11:27:19Z</time>
      </trkpt>
      <trkpt lat="48.69774" lon="7.17112">
        <ele>392.6</ele>
        <time>2023-11-28T11:27:26Z</time>
      </trkpt>
      <trkpt lat="48.69768" lon="7.17085">
        <ele>392</ele>
        <time>2023-11-28T11:27:32Z</time>
      </trkpt>
      <trkpt lat="48.69759" lon="7.17062">
        <ele>391.3</ele>
        <time>2023-11-28T11:27:38Z</time>
      </trkpt>
      <trkpt lat="48.6975" lon="7.17036">
        <ele>390.6</ele>
        <time>2023-11-28T11:27:44Z</time>
      </trkpt>
      <trkpt lat="48.69742" lon="7.17008">
        <ele>390.1</ele>
        <time>2023-11-28T11:27:50Z</time>
      </trkpt>
      <trkpt lat="48.69735" lon="7.16982">
        <ele>389.5</ele>
        <time>2023-11-28T11:27:56Z</time>
      </trkpt>
      <trkpt lat="48.69725" lon="7.16955">
        <ele>388.8</ele>
        <time>2023-11-28T11:28:03Z</time>
      </trkpt>
      <trkpt lat="48.69712" lon="7.16932">
        <ele>388.2</ele>
        <time>2023-11-28T11:28:10Z</time>
      </trkpt>
      <trkpt lat="48.69709" lon="7.16902">
        <ele>387.5</ele>
        <time>2023-11-28T11:28:17Z</time>
      </trkpt>
      <trkpt lat="48.69719" lon="7.16878">
        <ele>386.8</ele>
        <time>2023-11-28T11:28:23Z</time>
      </trkpt>
      <trkpt lat="48.69729" lon="7.16852">
        <ele>386.1</ele>
        <time>2023-11-28T11:28:29Z</time>
      </trkpt>
      <trkpt lat="48.69738" lon="7.16828">
        <ele>385.4</ele>
        <time>2023-11-28T11:28:35Z</time>
      </trkpt>
      <trkpt lat="48.69753" lon="7.16805">
        <ele>384.6</ele>
        <time>2023-11-28T11:28:42Z</time>
      </trkpt>
      <trkpt lat="48.69765" lon="7.16784">
        <ele>384</ele>
        <time>2023-11-28T11:28:48Z</time>
      </trkpt>
      <trkpt lat="48.6978" lon="7.16762">
        <ele>383.3</ele>
        <time>2023-11-28T11:28:55Z</time>
      </trkpt>
      <trkpt lat="48.69792" lon="7.16742">
        <ele>382.6</ele>
        <time>2023-11-28T11:29:01Z</time>
      </trkpt>
      <trkpt lat="48.69802" lon="7.16717">
        <ele>381.8</ele>
        <time>2023-11-28T11:29:09Z</time>
      </trkpt>
      <trkpt lat="48.69795" lon="7.16689">
        <ele>381</ele>
        <time>2023-11-28T11:29:16Z</time>
      </trkpt>
      <trkpt lat="48.69789" lon="7.16663">
        <ele>380.4</ele>
        <time>2023-11-28T11:29:22Z</time>
      </trkpt>
      <trkpt lat="48.69783" lon="7.16634">
        <ele>379.9</ele>
        <time>2023-11-28T11:29:28Z</time>
      </trkpt>
      <trkpt lat="48.69781" lon="7.16603">
        <ele>379.7</ele>
        <time>2023-11-28T11:29:35Z</time>
      </trkpt>
      <trkpt lat="48.69779" lon="7.16576">
        <ele>379.6</ele>
        <time>2023-11-28T11:29:41Z</time>
      </trkpt>
      <trkpt lat="48.69779" lon="7.16547">
        <ele>379.6</ele>
        <time>2023-11-28T11:29:47Z</time>
      </trkpt>
      <trkpt lat="48.69779" lon="7.16516">
        <ele>379.6</ele>
        <time>2023-11-28T11:29:54Z</time>
      </trkpt>
      <trkpt lat="48.69781" lon="7.16486">
        <ele>379.5</ele>
        <time>2023-11-28T11:30:01Z</time>
      </trkpt>
      <trkpt lat="48.69781" lon="7.16459">
        <ele>379.5</ele>
        <time>2023-11-28T11:30:07Z</time>
      </trkpt>
      <trkpt lat="48.69776" lon="7.16438">
        <ele>379.3</ele>
        <time>2023-11-28T11:30:13Z</time>
      </trkpt>
      <trkpt lat="48.69775" lon="7.16431">
        <ele>379.2</ele>
        <time>2023-11-28T11:30:16Z</time>
      </trkpt>
      <trkpt lat="48.69782" lon="7.16402">
        <ele>378.9</ele>
        <time>2023-11-28T11:30:24Z</time>
      </trkpt>
      <trkpt lat="48.69788" lon="7.16376">
        <ele>378.4</ele>
        <time>2023-11-28T11:30:30Z</time>
      </trkpt>
      <trkpt lat="48.69796" lon="7.16351">
        <ele>378.3</ele>
        <time>2023-11-28T11:30:36Z</time>
      </trkpt>
      <trkpt lat="48.698" lon="7.16324">
        <ele>378.3</ele>
        <time>2023-11-28T11:30:43Z</time>
      </trkpt>
      <trkpt lat="48.69808" lon="7.163">
        <ele>378.2</ele>
        <time>2023-11-28T11:30:50Z</time>
      </trkpt>
      <trkpt lat="48.69808" lon="7.1627">
        <ele>378.3</ele>
        <time>2023-11-28T11:30:57Z</time>
      </trkpt>
      <trkpt lat="48.69798" lon="7.16243">
        <ele>378.3</ele>
        <time>2023-11-28T11:31:04Z</time>
      </trkpt>
      <trkpt lat="48.69784" lon="7.16219">
        <ele>378.2</ele>
        <time>2023-11-28T11:31:11Z</time>
      </trkpt>
      <trkpt lat="48.69774" lon="7.16195">
        <ele>378.2</ele>
        <time>2023-11-28T11:31:17Z</time>
      </trkpt>
      <trkpt lat="48.6977" lon="7.16167">
        <ele>378.1</ele>
        <time>2023-11-28T11:31:23Z</time>
      </trkpt>
      <trkpt lat="48.69776" lon="7.16139">
        <ele>377.7</ele>
        <time>2023-11-28T11:31:29Z</time>
      </trkpt>
      <trkpt lat="48.69787" lon="7.16114">
        <ele>376.7</ele>
        <time>2023-11-28T11:31:35Z</time>
      </trkpt>
      <trkpt lat="48.69802" lon="7.16094">
        <ele>375.8</ele>
        <time>2023-11-28T11:31:41Z</time>
      </trkpt>
      <trkpt lat="48.69817" lon="7.16077">
        <ele>375.1</ele>
        <time>2023-11-28T11:31:47Z</time>
      </trkpt>
      <trkpt lat="48.69832" lon="7.16058">
        <ele>374.1</ele>
        <time>2023-11-28T11:31:53Z</time>
      </trkpt>
      <trkpt lat="48.69851" lon="7.16051">
        <ele>373.4</ele>
        <time>2023-11-28T11:31:59Z</time>
      </trkpt>
      <trkpt lat="48.69869" lon="7.16046">
        <ele>372.5</ele>
        <time>2023-11-28T11:32:05Z</time>
      </trkpt>
      <trkpt lat="48.69888" lon="7.16048">
        <ele>371.6</ele>
        <time>2023-11-28T11:32:11Z</time>
      </trkpt>
      <trkpt lat="48.69907" lon="7.1605">
        <ele>370.5</ele>
        <time>2023-11-28T11:32:17Z</time>
      </trkpt>
      <trkpt lat="48.69926" lon="7.1605">
        <ele>369.4</ele>
        <time>2023-11-28T11:32:23Z</time>
      </trkpt>
      <trkpt lat="48.69945" lon="7.16049">
        <ele>368.3</ele>
        <time>2023-11-28T11:32:29Z</time>
      </trkpt>
      <trkpt lat="48.69965" lon="7.16048">
        <ele>367.2</ele>
        <time>2023-11-28T11:32:35Z</time>
      </trkpt>
      <trkpt lat="48.69984" lon="7.16048">
        <ele>366.2</ele>
        <time>2023-11-28T11:32:41Z</time>
      </trkpt>
      <trkpt lat="48.70003" lon="7.16044">
        <ele>365</ele>
        <time>2023-11-28T11:32:47Z</time>
      </trkpt>
      <trkpt lat="48.70022" lon="7.16043">
        <ele>363.8</ele>
        <time>2023-11-28T11:32:53Z</time>
      </trkpt>
      <trkpt lat="48.70042" lon="7.16043">
        <ele>362.7</ele>
        <time>2023-11-28T11:33:00Z</time>
      </trkpt>
      <trkpt lat="48.70061" lon="7.16044">
        <ele>361.6</ele>
        <time>2023-11-28T11:33:07Z</time>
      </trkpt>
      <trkpt lat="48.70081" lon="7.16042">
        <ele>360.5</ele>
        <time>2023-11-28T11:33:14Z</time>
      </trkpt>
      <trkpt lat="48.70101" lon="7.1604">
        <ele>359.3</ele>
        <time>2023-11-28T11:33:21Z</time>
      </trkpt>
      <trkpt lat="48.70122" lon="7.16038">
        <ele>358.2</ele>
        <time>2023-11-28T11:33:28Z</time>
      </trkpt>
      <trkpt lat="48.70142" lon="7.16038">
        <ele>357.1</ele>
        <time>2023-11-28T11:33:35Z</time>
      </trkpt>
      <trkpt lat="48.70163" lon="7.16039">
        <ele>356</ele>
        <time>2023-11-28T11:33:42Z</time>
      </trkpt>
      <trkpt lat="48.70184" lon="7.16038">
        <ele>354.7</ele>
        <time>2023-11-28T11:33:49Z</time>
      </trkpt>
      <trkpt lat="48.70204" lon="7.16036">
        <ele>353.5</ele>
        <time>2023-11-28T11:33:56Z</time>
      </trkpt>
      <trkpt lat="48.7021" lon="7.1603">
        <ele>353</ele>
        <time>2023-11-28T11:33:59Z</time>
      </trkpt>
      <trkpt lat="48.70209" lon="7.16001">
        <ele>352.3</ele>
        <time>2023-11-28T11:34:06Z</time>
      </trkpt>
      <trkpt lat="48.70211" lon="7.15972">
        <ele>351.8</ele>
        <time>2023-11-28T11:34:13Z</time>
      </trkpt>
      <trkpt lat="48.70214" lon="7.15942">
        <ele>351.5</ele>
        <time>2023-11-28T11:34:20Z</time>
      </trkpt>
      <trkpt lat="48.70216" lon="7.15913">
        <ele>351.2</ele>
        <time>2023-11-28T11:34:27Z</time>
      </trkpt>
      <trkpt lat="48.70218" lon="7.15884">
        <ele>351</ele>
        <time>2023-11-28T11:34:34Z</time>
      </trkpt>
      <trkpt lat="48.7022" lon="7.15857">
        <ele>350.8</ele>
        <time>2023-11-28T11:34:41Z</time>
      </trkpt>
      <trkpt lat="48.70221" lon="7.15828">
        <ele>350.8</ele>
        <time>2023-11-28T11:34:48Z</time>
      </trkpt>
      <trkpt lat="48.7022" lon="7.158">
        <ele>350.8</ele>
        <time>2023-11-28T11:34:54Z</time>
      </trkpt>
      <trkpt lat="48.70218" lon="7.15772">
        <ele>351.5</ele>
        <time>2023-11-28T11:35:00Z</time>
      </trkpt>
      <trkpt lat="48.70217" lon="7.15744">
        <ele>352.4</ele>
        <time>2023-11-28T11:35:07Z</time>
      </trkpt>
      <trkpt lat="48.70218" lon="7.15714">
        <ele>353.4</ele>
        <time>2023-11-28T11:35:15Z</time>
      </trkpt>
      <trkpt lat="48.70217" lon="7.15687">
        <ele>354.6</ele>
        <time>2023-11-28T11:35:22Z</time>
      </trkpt>
      <trkpt lat="48.70217" lon="7.15656">
        <ele>356.1</ele>
        <time>2023-11-28T11:35:30Z</time>
      </trkpt>
      <trkpt lat="48.70217" lon="7.15627">
        <ele>357.5</ele>
        <time>2023-11-28T11:35:38Z</time>
      </trkpt>
      <trkpt lat="48.70216" lon="7.15597">
        <ele>358.9</ele>
        <time>2023-11-28T11:35:46Z</time>
      </trkpt>
      <trkpt lat="48.70215" lon="7.15568">
        <ele>360.2</ele>
        <time>2023-11-28T11:35:53Z</time>
      </trkpt>
      <trkpt lat="48.70213" lon="7.15539">
        <ele>361.2</ele>
        <time>2023-11-28T11:36:00Z</time>
      </trkpt>
      <trkpt lat="48.70211" lon="7.15511">
        <ele>362</ele>
        <time>2023-11-28T11:36:07Z</time>
      </trkpt>
      <trkpt lat="48.70211" lon="7.15484">
        <ele>362.6</ele>
        <time>2023-11-28T11:36:13Z</time>
      </trkpt>
      <trkpt lat="48.70209" lon="7.15453">
        <ele>362.9</ele>
        <time>2023-11-28T11:36:20Z</time>
      </trkpt>
      <trkpt lat="48.70207" lon="7.15426">
        <ele>363.1</ele>
        <time>2023-11-28T11:36:26Z</time>
      </trkpt>
      <trkpt lat="48.70205" lon="7.15396">
        <ele>363</ele>
        <time>2023-11-28T11:36:33Z</time>
      </trkpt>
      <trkpt lat="48.70203" lon="7.15365">
        <ele>362.1</ele>
        <time>2023-11-28T11:36:40Z</time>
      </trkpt>
      <trkpt lat="48.70202" lon="7.15334">
        <ele>361.3</ele>
        <time>2023-11-28T11:36:47Z</time>
      </trkpt>
      <trkpt lat="48.70212" lon="7.15309">
        <ele>360.6</ele>
        <time>2023-11-28T11:36:53Z</time>
      </trkpt>
      <trkpt lat="48.70225" lon="7.1529">
        <ele>360.1</ele>
        <time>2023-11-28T11:36:59Z</time>
      </trkpt>
      <trkpt lat="48.70238" lon="7.15271">
        <ele>359.7</ele>
        <time>2023-11-28T11:37:05Z</time>
      </trkpt>
      <trkpt lat="48.70252" lon="7.15252">
        <ele>359.5</ele>
        <time>2023-11-28T11:37:11Z</time>
      </trkpt>
      <trkpt lat="48.70267" lon="7.15235">
        <ele>359.4</ele>
        <time>2023-11-28T11:37:17Z</time>
      </trkpt>
      <trkpt lat="48.70284" lon="7.15223">
        <ele>359.3</ele>
        <time>2023-11-28T11:37:23Z</time>
      </trkpt>
      <trkpt lat="48.70303" lon="7.1522">
        <ele>359.2</ele>
        <time>2023-11-28T11:37:29Z</time>
      </trkpt>
      <trkpt lat="48.7032" lon="7.1523">
        <ele>359.4</ele>
        <time>2023-11-28T11:37:35Z</time>
      </trkpt>
      <trkpt lat="48.70337" lon="7.15242">
        <ele>359.5</ele>
        <time>2023-11-28T11:37:41Z</time>
      </trkpt>
      <trkpt lat="48.70354" lon="7.15253">
        <ele>359.4</ele>
        <time>2023-11-28T11:37:47Z</time>
      </trkpt>
      <trkpt lat="48.70373" lon="7.15261">
        <ele>359.1</ele>
        <time>2023-11-28T11:37:53Z</time>
      </trkpt>
      <trkpt lat="48.7039" lon="7.15268">
        <ele>359</ele>
        <time>2023-11-28T11:37:59Z</time>
      </trkpt>
      <trkpt lat="48.70408" lon="7.15276">
        <ele>359</ele>
        <time>2023-11-28T11:38:05Z</time>
      </trkpt>
      <trkpt lat="48.70425" lon="7.15284">
        <ele>359</ele>
        <time>2023-11-28T11:38:11Z</time>
      </trkpt>
      <trkpt lat="48.70443" lon="7.15293">
        <ele>358.9</ele>
        <time>2023-11-28T11:38:17Z</time>
      </trkpt>
      <trkpt lat="48.70461" lon="7.15302">
        <ele>358.8</ele>
        <time>2023-11-28T11:38:23Z</time>
      </trkpt>
      <trkpt lat="48.7048" lon="7.15316">
        <ele>358.6</ele>
        <time>2023-11-28T11:38:30Z</time>
      </trkpt>
      <trkpt lat="48.70497" lon="7.15333">
        <ele>358.3</ele>
        <time>2023-11-28T11:38:37Z</time>
      </trkpt>
      <trkpt lat="48.70513" lon="7.15348">
        <ele>357.8</ele>
        <time>2023-11-28T11:38:43Z</time>
      </trkpt>
      <trkpt lat="48.70529" lon="7.15365">
        <ele>357.4</ele>
        <time>2023-11-28T11:38:49Z</time>
      </trkpt>
      <trkpt lat="48.70546" lon="7.15378">
        <ele>357.1</ele>
        <time>2023-11-28T11:38:55Z</time>
      </trkpt>
      <trkpt lat="48.70564" lon="7.15387">
        <ele>356.8</ele>
        <time>2023-11-28T11:39:01Z</time>
      </trkpt>
      <trkpt lat="48.70581" lon="7.15395">
        <ele>356.7</ele>
        <time>2023-11-28T11:39:07Z</time>
      </trkpt>
      <trkpt lat="48.70598" lon="7.15403">
        <ele>356.5</ele>
        <time>2023-11-28T11:39:13Z</time>
      </trkpt>
      <trkpt lat="48.70618" lon="7.15413">
        <ele>356.1</ele>
        <time>2023-11-28T11:39:20Z</time>
      </trkpt>
      <trkpt lat="48.70638" lon="7.15422">
        <ele>355.7</ele>
        <time>2023-11-28T11:39:27Z</time>
      </trkpt>
      <trkpt lat="48.70656" lon="7.15429">
        <ele>355.6</ele>
        <time>2023-11-28T11:39:33Z</time>
      </trkpt>
      <trkpt lat="48.70674" lon="7.1544">
        <ele>355</ele>
        <time>2023-11-28T11:39:40Z</time>
      </trkpt>
      <trkpt lat="48.70691" lon="7.15451">
        <ele>354.3</ele>
        <time>2023-11-28T11:39:46Z</time>
      </trkpt>
      <trkpt lat="48.70708" lon="7.15463">
        <ele>353.3</ele>
        <time>2023-11-28T11:39:52Z</time>
      </trkpt>
      <trkpt lat="48.70726" lon="7.15476">
        <ele>352.2</ele>
        <time>2023-11-28T11:39:58Z</time>
      </trkpt>
      <trkpt lat="48.70742" lon="7.1549">
        <ele>351.4</ele>
        <time>2023-11-28T11:40:04Z</time>
      </trkpt>
      <trkpt lat="48.70758" lon="7.15509">
        <ele>350.6</ele>
        <time>2023-11-28T11:40:11Z</time>
      </trkpt>
      <trkpt lat="48.70775" lon="7.15526">
        <ele>349.8</ele>
        <time>2023-11-28T11:40:18Z</time>
      </trkpt>
      <trkpt lat="48.70791" lon="7.15541">
        <ele>349.1</ele>
        <time>2023-11-28T11:40:24Z</time>
      </trkpt>
      <trkpt lat="48.70807" lon="7.15558">
        <ele>348.4</ele>
        <time>2023-11-28T11:40:31Z</time>
      </trkpt>
      <trkpt lat="48.70824" lon="7.15576">
        <ele>347.6</ele>
        <time>2023-11-28T11:40:38Z</time>
      </trkpt>
      <trkpt lat="48.7084" lon="7.1559">
        <ele>347.1</ele>
        <time>2023-11-28T11:40:44Z</time>
      </trkpt>
      <trkpt lat="48.70857" lon="7.15607">
        <ele>346.3</ele>
        <time>2023-11-28T11:40:51Z</time>
      </trkpt>
      <trkpt lat="48.70874" lon="7.1562">
        <ele>345.5</ele>
        <time>2023-11-28T11:40:57Z</time>
      </trkpt>
      <trkpt lat="48.70891" lon="7.15635">
        <ele>344.7</ele>
        <time>2023-11-28T11:41:03Z</time>
      </trkpt>
      <trkpt lat="48.70907" lon="7.15647">
        <ele>343.7</ele>
        <time>2023-11-28T11:41:09Z</time>
      </trkpt>
      <trkpt lat="48.70922" lon="7.15662">
        <ele>342.4</ele>
        <time>2023-11-28T11:41:15Z</time>
      </trkpt>
      <trkpt lat="48.7094" lon="7.15674">
        <ele>341.1</ele>
        <time>2023-11-28T11:41:21Z</time>
      </trkpt>
      <trkpt lat="48.70961" lon="7.1568">
        <ele>341.7</ele>
        <time>2023-11-28T11:41:27Z</time>
      </trkpt>
      <trkpt lat="48.7098" lon="7.1568">
        <ele>340.9</ele>
        <time>2023-11-28T11:41:33Z</time>
      </trkpt>
      <trkpt lat="48.70999" lon="7.15687">
        <ele>339.9</ele>
        <time>2023-11-28T11:41:39Z</time>
      </trkpt>
      <trkpt lat="48.71018" lon="7.15691">
        <ele>338.7</ele>
        <time>2023-11-28T11:41:45Z</time>
      </trkpt>
      <trkpt lat="48.71037" lon="7.15697">
        <ele>337.3</ele>
        <time>2023-11-28T11:41:51Z</time>
      </trkpt>
      <trkpt lat="48.71057" lon="7.15705">
        <ele>336.1</ele>
        <time>2023-11-28T11:41:57Z</time>
      </trkpt>
      <trkpt lat="48.71075" lon="7.15717">
        <ele>335.5</ele>
        <time>2023-11-28T11:42:03Z</time>
      </trkpt>
      <trkpt lat="48.71093" lon="7.15729">
        <ele>335.1</ele>
        <time>2023-11-28T11:42:09Z</time>
      </trkpt>
      <trkpt lat="48.7111" lon="7.1574">
        <ele>335</ele>
        <time>2023-11-28T11:42:15Z</time>
      </trkpt>
      <trkpt lat="48.71129" lon="7.15753">
        <ele>335</ele>
        <time>2023-11-28T11:42:22Z</time>
      </trkpt>
      <trkpt lat="48.71148" lon="7.15763">
        <ele>335</ele>
        <time>2023-11-28T11:42:29Z</time>
      </trkpt>
      <trkpt lat="48.71165" lon="7.15773">
        <ele>335.2</ele>
        <time>2023-11-28T11:42:35Z</time>
      </trkpt>
      <trkpt lat="48.71183" lon="7.15782">
        <ele>335.4</ele>
        <time>2023-11-28T11:42:41Z</time>
      </trkpt>
      <trkpt lat="48.71202" lon="7.15789">
        <ele>335.7</ele>
        <time>2023-11-28T11:42:48Z</time>
      </trkpt>
      <trkpt lat="48.71219" lon="7.15801">
        <ele>336.1</ele>
        <time>2023-11-28T11:42:54Z</time>
      </trkpt>
      <trkpt lat="48.71232" lon="7.1582">
        <ele>336.2</ele>
        <time>2023-11-28T11:43:00Z</time>
      </trkpt>
      <trkpt lat="48.71246" lon="7.15844">
        <ele>335.8</ele>
        <time>2023-11-28T11:43:07Z</time>
      </trkpt>
      <trkpt lat="48.71259" lon="7.15868">
        <ele>335.2</ele>
        <time>2023-11-28T11:43:14Z</time>
      </trkpt>
      <trkpt lat="48.71271" lon="7.15891">
        <ele>334.8</ele>
        <time>2023-11-28T11:43:21Z</time>
      </trkpt>
      <trkpt lat="48.71284" lon="7.15914">
        <ele>334.4</ele>
        <time>2023-11-28T11:43:28Z</time>
      </trkpt>
      <trkpt lat="48.71297" lon="7.15938">
        <ele>333.7</ele>
        <time>2023-11-28T11:43:35Z</time>
      </trkpt>
      <trkpt lat="48.71307" lon="7.15963">
        <ele>332.6</ele>
        <time>2023-11-28T11:43:42Z</time>
      </trkpt>
      <trkpt lat="48.71313" lon="7.15992">
        <ele>330.7</ele>
        <time>2023-11-28T11:43:49Z</time>
      </trkpt>
      <trkpt lat="48.7132" lon="7.16021">
        <ele>328.6</ele>
        <time>2023-11-28T11:43:56Z</time>
      </trkpt>
      <trkpt lat="48.71329" lon="7.16048">
        <ele>326.9</ele>
        <time>2023-11-28T11:44:03Z</time>
      </trkpt>
      <trkpt lat="48.71333" lon="7.16077">
        <ele>325.6</ele>
        <time>2023-11-28T11:44:11Z</time>
      </trkpt>
      <trkpt lat="48.7132" lon="7.161">
        <ele>324.8</ele>
        <time>2023-11-28T11:44:18Z</time>
      </trkpt>
      <trkpt lat="48.71307" lon="7.16122">
        <ele>324</ele>
        <time>2023-11-28T11:44:25Z</time>
      </trkpt>
      <trkpt lat="48.71297" lon="7.16145">
        <ele>323.2</ele>
        <time>2023-11-28T11:44:32Z</time>
      </trkpt>
      <trkpt lat="48.71304" lon="7.16171">
        <ele>322.4</ele>
        <time>2023-11-28T11:44:39Z</time>
      </trkpt>
      <trkpt lat="48.71312" lon="7.1619">
        <ele>321.8</ele>
        <time>2023-11-28T11:44:45Z</time>
      </trkpt>
      <trkpt lat="48.71294" lon="7.16197">
        <ele>321.4</ele>
        <time>2023-11-28T11:44:51Z</time>
      </trkpt>
      <trkpt lat="48.71276" lon="7.16193">
        <ele>320.8</ele>
        <time>2023-11-28T11:44:56Z</time>
      </trkpt>
      <trkpt lat="48.71258" lon="7.16181">
        <ele>320.2</ele>
        <time>2023-11-28T11:45:02Z</time>
      </trkpt>
      <trkpt lat="48.71242" lon="7.16169">
        <ele>320</ele>
        <time>2023-11-28T11:45:08Z</time>
      </trkpt>
      <trkpt lat="48.71223" lon="7.16156">
        <ele>319.9</ele>
        <time>2023-11-28T11:45:15Z</time>
      </trkpt>
      <trkpt lat="48.71205" lon="7.16142">
        <ele>319.6</ele>
        <time>2023-11-28T11:45:22Z</time>
      </trkpt>
      <trkpt lat="48.71188" lon="7.16128">
        <ele>318.9</ele>
        <time>2023-11-28T11:45:29Z</time>
      </trkpt>
      <trkpt lat="48.71171" lon="7.16119">
        <ele>317.6</ele>
        <time>2023-11-28T11:45:36Z</time>
      </trkpt>
      <trkpt lat="48.71151" lon="7.16121">
        <ele>316.1</ele>
        <time>2023-11-28T11:45:44Z</time>
      </trkpt>
      <trkpt lat="48.71132" lon="7.16122">
        <ele>315.8</ele>
        <time>2023-11-28T11:45:50Z</time>
      </trkpt>
      <trkpt lat="48.71113" lon="7.16111">
        <ele>315.9</ele>
        <time>2023-11-28T11:45:57Z</time>
      </trkpt>
      <trkpt lat="48.71104" lon="7.16109">
        <ele>315.9</ele>
        <time>2023-11-28T11:46:01Z</time>
      </trkpt>
      <trkpt lat="48.71097" lon="7.16137">
        <ele>316.1</ele>
        <time>2023-11-28T11:46:09Z</time>
      </trkpt>
      <trkpt lat="48.71092" lon="7.16164">
        <ele>316.7</ele>
        <time>2023-11-28T11:46:16Z</time>
      </trkpt>
      <trkpt lat="48.71091" lon="7.16193">
        <ele>317.6</ele>
        <time>2023-11-28T11:46:23Z</time>
      </trkpt>
      <trkpt lat="48.71096" lon="7.16221">
        <ele>318.1</ele>
        <time>2023-11-28T11:46:30Z</time>
      </trkpt>
      <trkpt lat="48.7111" lon="7.1624">
        <ele>318</ele>
        <time>2023-11-28T11:46:36Z</time>
      </trkpt>
      <trkpt lat="48.71123" lon="7.16258">
        <ele>317.7</ele>
        <time>2023-11-28T11:46:43Z</time>
      </trkpt>
      <trkpt lat="48.71141" lon="7.1627">
        <ele>317</ele>
        <time>2023-11-28T11:46:50Z</time>
      </trkpt>
      <trkpt lat="48.71158" lon="7.16264">
        <ele>316.2</ele>
        <time>2023-11-28T11:46:56Z</time>
      </trkpt>
      <trkpt lat="48.71178" lon="7.16254">
        <ele>315.2</ele>
        <time>2023-11-28T11:47:03Z</time>
      </trkpt>
      <trkpt lat="48.71198" lon="7.16252">
        <ele>314.3</ele>
        <time>2023-11-28T11:47:09Z</time>
      </trkpt>
      <trkpt lat="48.71215" lon="7.16262">
        <ele>313.6</ele>
        <time>2023-11-28T11:47:15Z</time>
      </trkpt>
      <trkpt lat="48.71231" lon="7.16278">
        <ele>313.1</ele>
        <time>2023-11-28T11:47:21Z</time>
      </trkpt>
      <trkpt lat="48.71248" lon="7.16296">
        <ele>312.7</ele>
        <time>2023-11-28T11:47:28Z</time>
      </trkpt>
      <trkpt lat="48.71264" lon="7.16311">
        <ele>312.3</ele>
        <time>2023-11-28T11:47:34Z</time>
      </trkpt>
      <trkpt lat="48.7128" lon="7.16329">
        <ele>312.1</ele>
        <time>2023-11-28T11:47:41Z</time>
      </trkpt>
      <trkpt lat="48.71297" lon="7.16343">
        <ele>311.9</ele>
        <time>2023-11-28T11:47:48Z</time>
      </trkpt>
      <trkpt lat="48.713" lon="7.16343">
        <ele>311.8</ele>
        <time>2023-11-28T11:47:50Z</time>
      </trkpt>
      <trkpt lat="48.713" lon="7.16339">
        <ele>311.9</ele>
        <time>2023-11-28T11:47:52Z</time>
      </trkpt>
      <trkpt lat="48.71282" lon="7.16325">
        <ele>312.1</ele>
        <time>2023-11-28T11:47:59Z</time>
      </trkpt>
      <trkpt lat="48.71264" lon="7.16311">
        <ele>312.3</ele>
        <time>2023-11-28T11:48:06Z</time>
      </trkpt>
      <trkpt lat="48.71247" lon="7.16295">
        <ele>312.7</ele>
        <time>2023-11-28T11:48:13Z</time>
      </trkpt>
      <trkpt lat="48.7123" lon="7.1628">
        <ele>313.1</ele>
        <time>2023-11-28T11:48:20Z</time>
      </trkpt>
      <trkpt lat="48.71213" lon="7.16264">
        <ele>313.7</ele>
        <time>2023-11-28T11:48:28Z</time>
      </trkpt>
      <trkpt lat="48.71193" lon="7.16258">
        <ele>314.5</ele>
        <time>2023-11-28T11:48:36Z</time>
      </trkpt>
      <trkpt lat="48.71174" lon="7.16256">
        <ele>315.4</ele>
        <time>2023-11-28T11:48:44Z</time>
      </trkpt>
      <trkpt lat="48.71156" lon="7.16267">
        <ele>316.4</ele>
        <time>2023-11-28T11:48:53Z</time>
      </trkpt>
      <trkpt lat="48.7115" lon="7.16272">
        <ele>316.7</ele>
        <time>2023-11-28T11:48:55Z</time>
      </trkpt>
    </trkseg>
  </trk>
</gpx>